sensor_id;sensor_type;location;lat;lon;timestamp;P1;durP1;ratioP1;P2;durP2;ratioP2
70369;SDS011;57790;51.356;-2.906;2023-02-25T00:00:27;4.47;;;0.90;;
70369;SDS011;57790;51.356;-2.906;2023-02-25T00:03:30;4.88;;;0.90;;
70369;SDS011;57790;51.356;-2.906;2023-02-25T00:06:30;4.53;;;0.97;;
70369;SDS011;57790;51.356;-2.906;2023-02-25T00:09:30;4.20;;;0.90;;
70369;SDS011;57790;51.356;-2.906;2023-02-25T00:12:31;5.30;;;0.80;;
70369;SDS011;57790;51.356;-2.906;2023-02-25T00:15:31;5.00;;;0.90;;
70369;SDS011;57790;51.356;-2.906;2023-02-25T00:18:32;5.90;;;1.00;;
70369;SDS011;57790;51.356;-2.906;2023-02-25T00:21:32;3.50;;;0.70;;
70369;SDS011;57790;51.356;-2.906;2023-02-25T00:24:33;4.87;;;0.83;;
70369;SDS011;57790;51.356;-2.906;2023-02-25T00:27:34;4.77;;;0.80;;
70369;SDS011;57790;51.356;-2.906;2023-02-25T00:30:36;4.93;;;0.83;;
70369;SDS011;57790;51.356;-2.906;2023-02-25T00:33:38;5.87;;;1.00;;
70369;SDS011;57790;51.356;-2.906;2023-02-25T00:36:40;5.10;;;1.25;;
70369;SDS011;57790;51.356;-2.906;2023-02-25T00:39:41;5.47;;;0.87;;
70369;SDS011;57790;51.356;-2.906;2023-02-25T00:42:41;6.10;;;1.13;;
70369;SDS011;57790;51.356;-2.906;2023-02-25T00:45:42;4.50;;;0.70;;
70369;SDS011;57790;51.356;-2.906;2023-02-25T00:48:43;4.13;;;0.87;;
70369;SDS011;57790;51.356;-2.906;2023-02-25T00:51:43;5.45;;;0.85;;
70369;SDS011;57790;51.356;-2.906;2023-02-25T00:54:43;4.40;;;1.00;;
70369;SDS011;57790;51.356;-2.906;2023-02-25T00:57:44;5.83;;;1.20;;
70369;SDS011;57790;51.356;-2.906;2023-02-25T01:00:44;5.07;;;1.10;;
70369;SDS011;57790;51.356;-2.906;2023-02-25T01:03:45;5.70;;;1.00;;
70369;SDS011;57790;51.356;-2.906;2023-02-25T01:06:47;5.22;;;1.10;;
70369;SDS011;57790;51.356;-2.906;2023-02-25T01:09:47;8.07;;;1.30;;
70369;SDS011;57790;51.356;-2.906;2023-02-25T01:12:47;4.35;;;0.90;;
70369;SDS011;57790;51.356;-2.906;2023-02-25T01:15:48;4.57;;;0.77;;
70369;SDS011;57790;51.356;-2.906;2023-02-25T01:18:52;5.73;;;1.00;;
70369;SDS011;57790;51.356;-2.906;2023-02-25T01:21:55;6.30;;;1.50;;
70369;SDS011;57790;51.356;-2.906;2023-02-25T01:24:57;5.70;;;1.10;;
70369;SDS011;57790;51.356;-2.906;2023-02-25T01:27:57;6.57;;;0.93;;
70369;SDS011;57790;51.356;-2.906;2023-02-25T01:30:58;4.93;;;1.20;;
70369;SDS011;57790;51.356;-2.906;2023-02-25T01:33:59;3.70;;;1.10;;
70369;SDS011;57790;51.356;-2.906;2023-02-25T01:37:03;5.32;;;0.95;;
70369;SDS011;57790;51.356;-2.906;2023-02-25T01:40:04;5.32;;;0.80;;
70369;SDS011;57790;51.356;-2.906;2023-02-25T01:43:05;3.70;;;0.80;;
70369;SDS011;57790;51.356;-2.906;2023-02-25T01:46:11;5.53;;;0.88;;
70369;SDS011;57790;51.356;-2.906;2023-02-25T01:49:16;4.57;;;0.80;;
70369;SDS011;57790;51.356;-2.906;2023-02-25T01:52:21;4.97;;;0.80;;
70369;SDS011;57790;51.356;-2.906;2023-02-25T01:55:24;5.88;;;1.23;;
70369;SDS011;57790;51.356;-2.906;2023-02-25T01:58:25;4.47;;;0.80;;
70369;SDS011;57790;51.356;-2.906;2023-02-25T02:01:28;4.85;;;1.00;;
70369;SDS011;57790;51.356;-2.906;2023-02-25T02:04:31;4.25;;;0.88;;
70369;SDS011;57790;51.356;-2.906;2023-02-25T02:07:31;6.27;;;1.30;;
70369;SDS011;57790;51.356;-2.906;2023-02-25T02:10:32;3.23;;;0.87;;
70369;SDS011;57790;51.356;-2.906;2023-02-25T02:13:32;5.03;;;1.10;;
70369;SDS011;57790;51.356;-2.906;2023-02-25T02:29:40;6.15;;;1.25;;
70369;SDS011;57790;51.356;-2.906;2023-02-25T02:33:13;4.75;;;1.02;;
70369;SDS011;57790;51.356;-2.906;2023-02-25T02:43:02;6.47;;;1.02;;
70369;SDS011;57790;51.356;-2.906;2023-02-25T02:46:09;6.55;;;1.10;;
70369;SDS011;57790;51.356;-2.906;2023-02-25T02:49:14;5.47;;;0.98;;
70369;SDS011;57790;51.356;-2.906;2023-02-25T02:52:21;5.70;;;1.20;;
70369;SDS011;57790;51.356;-2.906;2023-02-25T02:55:31;5.77;;;1.17;;
70369;SDS011;57790;51.356;-2.906;2023-02-25T02:58:46;5.85;;;0.98;;
70369;SDS011;57790;51.356;-2.906;2023-02-25T03:01:53;4.03;;;0.88;;
70369;SDS011;57790;51.356;-2.906;2023-02-25T03:05:00;6.18;;;1.08;;
70369;SDS011;57790;51.356;-2.906;2023-02-25T03:08:06;6.65;;;0.90;;
70369;SDS011;57790;51.356;-2.906;2023-02-25T03:11:37;5.40;;;0.93;;
70369;SDS011;57790;51.356;-2.906;2023-02-25T03:14:38;3.58;;;0.80;;
70369;SDS011;57790;51.356;-2.906;2023-02-25T03:17:41;5.30;;;0.87;;
70369;SDS011;57790;51.356;-2.906;2023-02-25T03:21:06;4.28;;;0.80;;
70369;SDS011;57790;51.356;-2.906;2023-02-25T03:24:24;5.72;;;1.25;;
70369;SDS011;57790;51.356;-2.906;2023-02-25T03:27:32;3.30;;;0.70;;
70369;SDS011;57790;51.356;-2.906;2023-02-25T03:30:43;4.07;;;0.83;;
70369;SDS011;57790;51.356;-2.906;2023-02-25T03:34:06;3.53;;;0.80;;
70369;SDS011;57790;51.356;-2.906;2023-02-25T03:37:09;3.40;;;0.77;;
70369;SDS011;57790;51.356;-2.906;2023-02-25T03:40:13;4.68;;;0.90;;
70369;SDS011;57790;51.356;-2.906;2023-02-25T03:43:27;6.37;;;0.83;;
70369;SDS011;57790;51.356;-2.906;2023-02-25T03:46:32;4.10;;;0.80;;
70369;SDS011;57790;51.356;-2.906;2023-02-25T03:53:03;4.22;;;0.70;;
70369;SDS011;57790;51.356;-2.906;2023-02-25T03:56:05;3.95;;;0.77;;
70369;SDS011;57790;51.356;-2.906;2023-02-25T03:59:08;3.13;;;0.80;;
70369;SDS011;57790;51.356;-2.906;2023-02-25T04:02:09;3.75;;;1.00;;
70369;SDS011;57790;51.356;-2.906;2023-02-25T04:05:12;4.83;;;0.97;;
70369;SDS011;57790;51.356;-2.906;2023-02-25T04:08:13;4.95;;;0.70;;
70369;SDS011;57790;51.356;-2.906;2023-02-25T04:11:14;3.22;;;0.70;;
70369;SDS011;57790;51.356;-2.906;2023-02-25T04:14:15;3.63;;;0.60;;
70369;SDS011;57790;51.356;-2.906;2023-02-25T04:17:17;5.73;;;1.10;;
70369;SDS011;57790;51.356;-2.906;2023-02-25T04:20:18;2.92;;;0.50;;
70369;SDS011;57790;51.356;-2.906;2023-02-25T04:23:18;3.17;;;0.70;;
70369;SDS011;57790;51.356;-2.906;2023-02-25T04:26:19;4.27;;;0.70;;
70369;SDS011;57790;51.356;-2.906;2023-02-25T04:29:19;3.77;;;0.73;;
70369;SDS011;57790;51.356;-2.906;2023-02-25T04:32:20;3.93;;;0.63;;
70369;SDS011;57790;51.356;-2.906;2023-02-25T04:35:20;5.57;;;0.80;;
70369;SDS011;57790;51.356;-2.906;2023-02-25T04:38:20;4.47;;;0.90;;
70369;SDS011;57790;51.356;-2.906;2023-02-25T04:41:21;3.03;;;0.90;;
70369;SDS011;57790;51.356;-2.906;2023-02-25T04:44:23;5.60;;;0.90;;
70369;SDS011;57790;51.356;-2.906;2023-02-25T04:47:24;5.35;;;0.80;;
70369;SDS011;57790;51.356;-2.906;2023-02-25T04:50:24;3.17;;;0.80;;
70369;SDS011;57790;51.356;-2.906;2023-02-25T04:53:25;6.60;;;1.00;;
70369;SDS011;57790;51.356;-2.906;2023-02-25T04:56:25;3.33;;;0.70;;
70369;SDS011;57790;51.356;-2.906;2023-02-25T04:59:26;3.60;;;0.77;;
70369;SDS011;57790;51.356;-2.906;2023-02-25T05:02:26;2.92;;;0.80;;
70369;SDS011;57790;51.356;-2.906;2023-02-25T05:05:27;6.03;;;0.90;;
70369;SDS011;57790;51.356;-2.906;2023-02-25T05:08:28;4.97;;;1.00;;
70369;SDS011;57790;51.356;-2.906;2023-02-25T05:11:28;5.25;;;0.90;;
70369;SDS011;57790;51.356;-2.906;2023-02-25T05:14:29;3.30;;;0.70;;
70369;SDS011;57790;51.356;-2.906;2023-02-25T05:17:32;3.53;;;0.70;;
70369;SDS011;57790;51.356;-2.906;2023-02-25T05:20:33;3.25;;;0.70;;
70369;SDS011;57790;51.356;-2.906;2023-02-25T05:23:33;5.80;;;1.00;;
70369;SDS011;57790;51.356;-2.906;2023-02-25T05:26:34;4.67;;;0.90;;
70369;SDS011;57790;51.356;-2.906;2023-02-25T05:29:34;3.80;;;0.90;;
70369;SDS011;57790;51.356;-2.906;2023-02-25T05:32:35;3.75;;;0.82;;
70369;SDS011;57790;51.356;-2.906;2023-02-25T05:35:38;5.93;;;0.77;;
70369;SDS011;57790;51.356;-2.906;2023-02-25T05:38:39;5.15;;;0.82;;
70369;SDS011;57790;51.356;-2.906;2023-02-25T05:41:40;3.58;;;0.85;;
70369;SDS011;57790;51.356;-2.906;2023-02-25T05:44:41;3.63;;;0.87;;
70369;SDS011;57790;51.356;-2.906;2023-02-25T05:47:41;4.00;;;0.77;;
70369;SDS011;57790;51.356;-2.906;2023-02-25T05:50:42;4.85;;;0.68;;
70369;SDS011;57790;51.356;-2.906;2023-02-25T05:53:42;4.00;;;0.70;;
70369;SDS011;57790;51.356;-2.906;2023-02-25T05:56:43;4.50;;;0.80;;
70369;SDS011;57790;51.356;-2.906;2023-02-25T05:59:44;5.38;;;1.00;;
70369;SDS011;57790;51.356;-2.906;2023-02-25T06:02:44;4.90;;;0.60;;
70369;SDS011;57790;51.356;-2.906;2023-02-25T06:05:45;4.67;;;0.80;;
70369;SDS011;57790;51.356;-2.906;2023-02-25T06:08:45;3.60;;;0.83;;
70369;SDS011;57790;51.356;-2.906;2023-02-25T06:11:46;2.83;;;0.60;;
70369;SDS011;57790;51.356;-2.906;2023-02-25T06:14:47;4.43;;;0.73;;
70369;SDS011;57790;51.356;-2.906;2023-02-25T06:17:48;3.03;;;0.50;;
70369;SDS011;57790;51.356;-2.906;2023-02-25T06:20:49;3.72;;;0.93;;
70369;SDS011;57790;51.356;-2.906;2023-02-25T06:23:49;3.20;;;0.80;;
70369;SDS011;57790;51.356;-2.906;2023-02-25T06:26:51;2.92;;;0.70;;
70369;SDS011;57790;51.356;-2.906;2023-02-25T06:29:51;5.37;;;0.70;;
70369;SDS011;57790;51.356;-2.906;2023-02-25T06:32:52;3.17;;;0.63;;
70369;SDS011;57790;51.356;-2.906;2023-02-25T06:35:53;5.13;;;0.90;;
70369;SDS011;57790;51.356;-2.906;2023-02-25T06:38:53;3.40;;;0.63;;
70369;SDS011;57790;51.356;-2.906;2023-02-25T06:41:55;4.35;;;0.90;;
70369;SDS011;57790;51.356;-2.906;2023-02-25T06:44:55;3.00;;;0.70;;
70369;SDS011;57790;51.356;-2.906;2023-02-25T06:47:55;4.87;;;0.87;;
70369;SDS011;57790;51.356;-2.906;2023-02-25T06:50:56;5.63;;;0.90;;
70369;SDS011;57790;51.356;-2.906;2023-02-25T06:53:56;3.97;;;0.70;;
70369;SDS011;57790;51.356;-2.906;2023-02-25T06:56:57;5.60;;;0.70;;
70369;SDS011;57790;51.356;-2.906;2023-02-25T06:59:57;4.77;;;0.80;;
70369;SDS011;57790;51.356;-2.906;2023-02-25T07:02:57;3.60;;;0.93;;
70369;SDS011;57790;51.356;-2.906;2023-02-25T07:05:58;2.37;;;0.60;;
70369;SDS011;57790;51.356;-2.906;2023-02-25T07:08:58;4.65;;;0.65;;
70369;SDS011;57790;51.356;-2.906;2023-02-25T07:11:58;4.47;;;1.00;;
70369;SDS011;57790;51.356;-2.906;2023-02-25T07:14:59;4.77;;;0.73;;
70369;SDS011;57790;51.356;-2.906;2023-02-25T07:17:59;5.57;;;0.83;;
70369;SDS011;57790;51.356;-2.906;2023-02-25T07:21:00;4.17;;;0.70;;
70369;SDS011;57790;51.356;-2.906;2023-02-25T07:24:00;3.40;;;0.63;;
70369;SDS011;57790;51.356;-2.906;2023-02-25T07:27:01;4.10;;;0.60;;
70369;SDS011;57790;51.356;-2.906;2023-02-25T07:30:01;4.23;;;0.80;;
70369;SDS011;57790;51.356;-2.906;2023-02-25T07:33:02;4.20;;;0.50;;
70369;SDS011;57790;51.356;-2.906;2023-02-25T07:36:03;4.50;;;0.90;;
70369;SDS011;57790;51.356;-2.906;2023-02-25T07:39:04;4.45;;;0.70;;
70369;SDS011;57790;51.356;-2.906;2023-02-25T07:42:06;3.57;;;0.67;;
70369;SDS011;57790;51.356;-2.906;2023-02-25T07:45:07;3.07;;;0.60;;
70369;SDS011;57790;51.356;-2.906;2023-02-25T07:48:09;5.40;;;0.80;;
70369;SDS011;57790;51.356;-2.906;2023-02-25T07:51:11;3.93;;;0.77;;
70369;SDS011;57790;51.356;-2.906;2023-02-25T07:54:14;6.22;;;1.52;;
70369;SDS011;57790;51.356;-2.906;2023-02-25T07:57:16;6.15;;;0.80;;
70369;SDS011;57790;51.356;-2.906;2023-02-25T08:00:16;4.90;;;0.70;;
70369;SDS011;57790;51.356;-2.906;2023-02-25T08:03:17;3.23;;;0.67;;
70369;SDS011;57790;51.356;-2.906;2023-02-25T08:06:17;3.50;;;0.88;;
70369;SDS011;57790;51.356;-2.906;2023-02-25T08:09:19;4.90;;;0.60;;
70369;SDS011;57790;51.356;-2.906;2023-02-25T08:12:20;4.82;;;0.75;;
70369;SDS011;57790;51.356;-2.906;2023-02-25T08:15:20;6.87;;;1.23;;
70369;SDS011;57790;51.356;-2.906;2023-02-25T08:18:21;4.90;;;0.70;;
70369;SDS011;57790;51.356;-2.906;2023-02-25T08:21:22;4.07;;;0.80;;
70369;SDS011;57790;51.356;-2.906;2023-02-25T08:24:23;6.13;;;0.70;;
70369;SDS011;57790;51.356;-2.906;2023-02-25T08:27:23;6.57;;;1.00;;
70369;SDS011;57790;51.356;-2.906;2023-02-25T08:30:24;5.80;;;0.70;;
70369;SDS011;57790;51.356;-2.906;2023-02-25T08:33:25;5.53;;;0.60;;
70369;SDS011;57790;51.356;-2.906;2023-02-25T08:36:28;7.57;;;0.73;;
70369;SDS011;57790;51.356;-2.906;2023-02-25T08:39:30;5.80;;;1.00;;
70369;SDS011;57790;51.356;-2.906;2023-02-25T08:42:32;8.07;;;0.98;;
70369;SDS011;57790;51.356;-2.906;2023-02-25T08:45:33;7.30;;;1.03;;
70369;SDS011;57790;51.356;-2.906;2023-02-25T08:48:34;4.43;;;0.80;;
70369;SDS011;57790;51.356;-2.906;2023-02-25T08:51:35;5.22;;;0.82;;
70369;SDS011;57790;51.356;-2.906;2023-02-25T08:54:37;6.93;;;0.97;;
70369;SDS011;57790;51.356;-2.906;2023-02-25T08:57:39;6.95;;;0.68;;
70369;SDS011;57790;51.356;-2.906;2023-02-25T09:00:40;4.63;;;0.80;;
70369;SDS011;57790;51.356;-2.906;2023-02-25T09:03:41;2.90;;;0.63;;
70369;SDS011;57790;51.356;-2.906;2023-02-25T09:06:52;4.60;;;0.77;;
70369;SDS011;57790;51.356;-2.906;2023-02-25T09:09:53;6.43;;;0.70;;
70369;SDS011;57790;51.356;-2.906;2023-02-25T09:12:54;4.15;;;0.80;;
70369;SDS011;57790;51.356;-2.906;2023-02-25T09:15:55;5.87;;;0.70;;
70369;SDS011;57790;51.356;-2.906;2023-02-25T09:18:56;5.90;;;0.90;;
70369;SDS011;57790;51.356;-2.906;2023-02-25T09:21:57;6.30;;;0.60;;
70369;SDS011;57790;51.356;-2.906;2023-02-25T09:24:57;5.93;;;0.97;;
70369;SDS011;57790;51.356;-2.906;2023-02-25T09:27:57;6.97;;;0.90;;
70369;SDS011;57790;51.356;-2.906;2023-02-25T09:30:58;7.13;;;0.80;;
70369;SDS011;57790;51.356;-2.906;2023-02-25T09:34:00;4.80;;;0.70;;
70369;SDS011;57790;51.356;-2.906;2023-02-25T09:37:03;8.13;;;0.90;;
70369;SDS011;57790;51.356;-2.906;2023-02-25T09:40:04;6.40;;;0.70;;
70369;SDS011;57790;51.356;-2.906;2023-02-25T09:46:18;7.07;;;0.73;;
70369;SDS011;57790;51.356;-2.906;2023-02-25T09:52:43;8.82;;;0.80;;
70369;SDS011;57790;51.356;-2.906;2023-02-25T09:56:06;6.88;;;1.00;;
70369;SDS011;57790;51.356;-2.906;2023-02-25T09:59:15;5.25;;;0.90;;
70369;SDS011;57790;51.356;-2.906;2023-02-25T10:05:27;4.30;;;0.73;;
70369;SDS011;57790;51.356;-2.906;2023-02-25T10:12:12;7.38;;;0.80;;
70369;SDS011;57790;51.356;-2.906;2023-02-25T10:18:45;7.22;;;0.80;;
70369;SDS011;57790;51.356;-2.906;2023-02-25T10:25:23;8.23;;;0.93;;
70369;SDS011;57790;51.356;-2.906;2023-02-25T10:28:27;6.38;;;0.88;;
70369;SDS011;57790;51.356;-2.906;2023-02-25T10:31:31;6.85;;;1.30;;
70369;SDS011;57790;51.356;-2.906;2023-02-25T10:34:32;6.13;;;0.80;;
70369;SDS011;57790;51.356;-2.906;2023-02-25T10:37:37;6.87;;;0.80;;
70369;SDS011;57790;51.356;-2.906;2023-02-25T10:40:38;8.73;;;1.08;;
70369;SDS011;57790;51.356;-2.906;2023-02-25T10:43:40;7.23;;;0.63;;
70369;SDS011;57790;51.356;-2.906;2023-02-25T10:46:44;6.03;;;0.73;;
70369;SDS011;57790;51.356;-2.906;2023-02-25T10:50:14;5.32;;;0.80;;
70369;SDS011;57790;51.356;-2.906;2023-02-25T10:53:21;6.07;;;1.27;;
70369;SDS011;57790;51.356;-2.906;2023-02-25T10:56:22;7.57;;;1.00;;
70369;SDS011;57790;51.356;-2.906;2023-02-25T10:59:33;3.58;;;0.73;;
70369;SDS011;57790;51.356;-2.906;2023-02-25T11:02:40;6.88;;;1.35;;
70369;SDS011;57790;51.356;-2.906;2023-02-25T11:05:42;5.57;;;0.80;;
70369;SDS011;57790;51.356;-2.906;2023-02-25T11:08:43;5.93;;;1.48;;
70369;SDS011;57790;51.356;-2.906;2023-02-25T11:11:52;4.50;;;0.75;;
70369;SDS011;57790;51.356;-2.906;2023-02-25T11:14:54;6.35;;;1.15;;
70369;SDS011;57790;51.356;-2.906;2023-02-25T11:17:57;6.83;;;1.20;;
70369;SDS011;57790;51.356;-2.906;2023-02-25T11:21:11;6.25;;;0.80;;
70369;SDS011;57790;51.356;-2.906;2023-02-25T11:24:15;5.75;;;0.88;;
70369;SDS011;57790;51.356;-2.906;2023-02-25T11:27:25;5.13;;;0.77;;
70369;SDS011;57790;51.356;-2.906;2023-02-25T11:30:37;6.75;;;0.90;;
70369;SDS011;57790;51.356;-2.906;2023-02-25T11:33:39;5.50;;;0.90;;
70369;SDS011;57790;51.356;-2.906;2023-02-25T11:36:43;6.32;;;0.90;;
70369;SDS011;57790;51.356;-2.906;2023-02-25T11:39:52;8.18;;;1.50;;
70369;SDS011;57790;51.356;-2.906;2023-02-25T11:43:00;8.30;;;1.07;;
70369;SDS011;57790;51.356;-2.906;2023-02-25T11:52:10;8.00;;;1.00;;
70369;SDS011;57790;51.356;-2.906;2023-02-25T12:09:38;6.97;;;1.33;;
70369;SDS011;57790;51.356;-2.906;2023-02-25T12:28:58;4.93;;;0.80;;
70369;SDS011;57790;51.356;-2.906;2023-02-25T13:04:40;6.28;;;1.23;;
70369;SDS011;57790;51.356;-2.906;2023-02-25T13:08:06;6.50;;;0.85;;
70369;SDS011;57790;51.356;-2.906;2023-02-25T13:11:56;6.40;;;1.13;;
70369;SDS011;57790;51.356;-2.906;2023-02-25T13:28:22;6.07;;;1.15;;
70369;SDS011;57790;51.356;-2.906;2023-02-25T13:35:20;6.82;;;0.88;;
70369;SDS011;57790;51.356;-2.906;2023-02-25T13:38:56;8.23;;;1.30;;
70369;SDS011;57790;51.356;-2.906;2023-02-25T13:56:47;7.78;;;1.48;;
70369;SDS011;57790;51.356;-2.906;2023-02-25T14:13:39;7.28;;;1.25;;
70369;SDS011;57790;51.356;-2.906;2023-02-25T14:23:32;10.40;;;1.43;;
70369;SDS011;57790;51.356;-2.906;2023-02-25T14:26:46;7.43;;;0.90;;
70369;SDS011;57790;51.356;-2.906;2023-02-25T14:30:16;7.90;;;1.50;;
70369;SDS011;57790;51.356;-2.906;2023-02-25T14:33:33;6.95;;;1.02;;
70369;SDS011;57790;51.356;-2.906;2023-02-25T14:36:58;5.10;;;1.10;;
70369;SDS011;57790;51.356;-2.906;2023-02-25T14:56:33;6.10;;;0.83;;
70369;SDS011;57790;51.356;-2.906;2023-02-25T15:03:22;8.07;;;0.98;;
70369;SDS011;57790;51.356;-2.906;2023-02-25T15:23:07;5.57;;;1.05;;
70369;SDS011;57790;51.356;-2.906;2023-02-25T15:38:48;6.57;;;1.33;;
70369;SDS011;57790;51.356;-2.906;2023-02-25T15:41:56;7.32;;;1.25;;
70369;SDS011;57790;51.356;-2.906;2023-02-25T15:48:27;6.37;;;1.20;;
70369;SDS011;57790;51.356;-2.906;2023-02-25T15:51:44;7.03;;;1.10;;
70369;SDS011;57790;51.356;-2.906;2023-02-25T15:54:48;6.40;;;1.17;;
70369;SDS011;57790;51.356;-2.906;2023-02-25T15:57:49;7.60;;;1.20;;
70369;SDS011;57790;51.356;-2.906;2023-02-25T16:00:56;6.83;;;1.63;;
70369;SDS011;57790;51.356;-2.906;2023-02-25T16:04:01;6.25;;;1.10;;
70369;SDS011;57790;51.356;-2.906;2023-02-25T16:07:30;5.70;;;0.88;;
70369;SDS011;57790;51.356;-2.906;2023-02-25T16:10:34;7.07;;;1.00;;
70369;SDS011;57790;51.356;-2.906;2023-02-25T16:13:40;5.77;;;0.77;;
70369;SDS011;57790;51.356;-2.906;2023-02-25T16:16:57;5.65;;;0.82;;
70369;SDS011;57790;51.356;-2.906;2023-02-25T16:23:23;4.18;;;0.80;;
70369;SDS011;57790;51.356;-2.906;2023-02-25T16:26:28;6.77;;;1.00;;
70369;SDS011;57790;51.356;-2.906;2023-02-25T16:29:50;8.90;;;1.00;;
70369;SDS011;57790;51.356;-2.906;2023-02-25T16:33:17;6.00;;;0.80;;
70369;SDS011;57790;51.356;-2.906;2023-02-25T16:39:25;8.07;;;1.50;;
70369;SDS011;57790;51.356;-2.906;2023-02-25T16:42:30;6.83;;;1.10;;
70369;SDS011;57790;51.356;-2.906;2023-02-25T16:45:32;7.07;;;1.30;;
70369;SDS011;57790;51.356;-2.906;2023-02-25T16:48:38;6.97;;;1.10;;
70369;SDS011;57790;51.356;-2.906;2023-02-25T16:51:51;5.07;;;0.90;;
70369;SDS011;57790;51.356;-2.906;2023-02-25T16:55:01;3.40;;;0.73;;
70369;SDS011;57790;51.356;-2.906;2023-02-25T17:01:21;6.17;;;1.07;;
70369;SDS011;57790;51.356;-2.906;2023-02-25T17:04:24;6.32;;;0.73;;
70369;SDS011;57790;51.356;-2.906;2023-02-25T17:07:30;8.38;;;0.95;;
70369;SDS011;57790;51.356;-2.906;2023-02-25T17:10:47;6.63;;;1.00;;
70369;SDS011;57790;51.356;-2.906;2023-02-25T17:13:50;6.03;;;1.00;;
70369;SDS011;57790;51.356;-2.906;2023-02-25T17:16:54;5.93;;;0.90;;
70369;SDS011;57790;51.356;-2.906;2023-02-25T17:19:55;10.45;;;1.55;;
70369;SDS011;57790;51.356;-2.906;2023-02-25T17:22:57;10.70;;;1.20;;
70369;SDS011;57790;51.356;-2.906;2023-02-25T17:26:02;5.10;;;1.05;;
70369;SDS011;57790;51.356;-2.906;2023-02-25T17:29:03;7.70;;;1.10;;
70369;SDS011;57790;51.356;-2.906;2023-02-25T17:32:29;6.72;;;1.10;;
70369;SDS011;57790;51.356;-2.906;2023-02-25T17:35:29;7.50;;;1.20;;
70369;SDS011;57790;51.356;-2.906;2023-02-25T17:38:31;10.20;;;1.00;;
70369;SDS011;57790;51.356;-2.906;2023-02-25T17:41:32;6.30;;;1.00;;
70369;SDS011;57790;51.356;-2.906;2023-02-25T17:47:41;5.53;;;1.05;;
70369;SDS011;57790;51.356;-2.906;2023-02-25T17:50:42;7.32;;;1.13;;
70369;SDS011;57790;51.356;-2.906;2023-02-25T17:53:53;6.97;;;1.00;;
70369;SDS011;57790;51.356;-2.906;2023-02-25T17:57:05;11.52;;;1.50;;
70369;SDS011;57790;51.356;-2.906;2023-02-25T18:00:26;6.07;;;1.00;;
70369;SDS011;57790;51.356;-2.906;2023-02-25T18:03:41;6.22;;;1.05;;
70369;SDS011;57790;51.356;-2.906;2023-02-25T18:06:43;6.03;;;0.98;;
70369;SDS011;57790;51.356;-2.906;2023-02-25T18:09:44;5.07;;;0.90;;
70369;SDS011;57790;51.356;-2.906;2023-02-25T18:12:44;7.47;;;1.20;;
70369;SDS011;57790;51.356;-2.906;2023-02-25T18:15:46;6.65;;;1.48;;
70369;SDS011;57790;51.356;-2.906;2023-02-25T18:19:08;8.10;;;1.10;;
70369;SDS011;57790;51.356;-2.906;2023-02-25T18:25:40;8.00;;;1.05;;
70369;SDS011;57790;51.356;-2.906;2023-02-25T18:28:45;10.57;;;1.30;;
70369;SDS011;57790;51.356;-2.906;2023-02-25T18:31:46;5.65;;;0.90;;
70369;SDS011;57790;51.356;-2.906;2023-02-25T18:34:46;5.70;;;1.00;;
70369;SDS011;57790;51.356;-2.906;2023-02-25T18:37:48;6.90;;;0.90;;
70369;SDS011;57790;51.356;-2.906;2023-02-25T18:40:51;7.00;;;0.93;;
70369;SDS011;57790;51.356;-2.906;2023-02-25T18:43:53;8.23;;;1.20;;
70369;SDS011;57790;51.356;-2.906;2023-02-25T18:46:53;6.05;;;1.10;;
70369;SDS011;57790;51.356;-2.906;2023-02-25T18:49:54;7.63;;;1.10;;
70369;SDS011;57790;51.356;-2.906;2023-02-25T18:52:54;6.17;;;1.10;;
70369;SDS011;57790;51.356;-2.906;2023-02-25T18:55:56;8.40;;;1.00;;
70369;SDS011;57790;51.356;-2.906;2023-02-25T18:58:57;7.80;;;0.93;;
70369;SDS011;57790;51.356;-2.906;2023-02-25T19:01:58;4.37;;;0.80;;
70369;SDS011;57790;51.356;-2.906;2023-02-25T19:04:58;6.10;;;1.00;;
70369;SDS011;57790;51.356;-2.906;2023-02-25T19:08:00;6.87;;;1.00;;
70369;SDS011;57790;51.356;-2.906;2023-02-25T19:11:01;7.22;;;0.90;;
70369;SDS011;57790;51.356;-2.906;2023-02-25T19:14:02;8.00;;;0.83;;
70369;SDS011;57790;51.356;-2.906;2023-02-25T19:17:04;4.72;;;1.10;;
70369;SDS011;57790;51.356;-2.906;2023-02-25T19:20:05;6.00;;;1.00;;
70369;SDS011;57790;51.356;-2.906;2023-02-25T19:23:09;7.75;;;1.20;;
70369;SDS011;57790;51.356;-2.906;2023-02-25T19:26:10;10.40;;;1.00;;
70369;SDS011;57790;51.356;-2.906;2023-02-25T19:29:12;6.13;;;1.10;;
70369;SDS011;57790;51.356;-2.906;2023-02-25T19:32:12;7.77;;;1.20;;
70369;SDS011;57790;51.356;-2.906;2023-02-25T19:35:14;10.03;;;1.10;;
70369;SDS011;57790;51.356;-2.906;2023-02-25T19:38:16;6.38;;;1.10;;
70369;SDS011;57790;51.356;-2.906;2023-02-25T19:41:17;7.85;;;1.42;;
70369;SDS011;57790;51.356;-2.906;2023-02-25T19:44:18;9.17;;;1.43;;
70369;SDS011;57790;51.356;-2.906;2023-02-25T19:47:18;6.70;;;1.43;;
70369;SDS011;57790;51.356;-2.906;2023-02-25T19:50:20;7.47;;;1.13;;
70369;SDS011;57790;51.356;-2.906;2023-02-25T19:53:23;7.90;;;1.55;;
70369;SDS011;57790;51.356;-2.906;2023-02-25T19:56:25;5.93;;;1.30;;
70369;SDS011;57790;51.356;-2.906;2023-02-25T19:59:27;4.87;;;1.00;;
70369;SDS011;57790;51.356;-2.906;2023-02-25T20:02:28;9.20;;;1.35;;
70369;SDS011;57790;51.356;-2.906;2023-02-25T20:05:28;8.57;;;1.33;;
70369;SDS011;57790;51.356;-2.906;2023-02-25T20:08:29;6.33;;;1.17;;
70369;SDS011;57790;51.356;-2.906;2023-02-25T20:11:29;5.78;;;1.02;;
70369;SDS011;57790;51.356;-2.906;2023-02-25T20:14:30;5.57;;;1.20;;
70369;SDS011;57790;51.356;-2.906;2023-02-25T20:17:33;8.18;;;1.30;;
70369;SDS011;57790;51.356;-2.906;2023-02-25T20:20:41;8.50;;;1.10;;
70369;SDS011;57790;51.356;-2.906;2023-02-25T20:23:42;5.45;;;1.20;;
70369;SDS011;57790;51.356;-2.906;2023-02-25T20:26:45;10.80;;;1.60;;
70369;SDS011;57790;51.356;-2.906;2023-02-25T20:29:46;5.90;;;1.30;;
70369;SDS011;57790;51.356;-2.906;2023-02-25T20:32:46;5.57;;;0.97;;
70369;SDS011;57790;51.356;-2.906;2023-02-25T20:35:47;4.37;;;0.93;;
70369;SDS011;57790;51.356;-2.906;2023-02-25T20:38:52;11.05;;;1.55;;
70369;SDS011;57790;51.356;-2.906;2023-02-25T20:42:01;6.72;;;1.33;;
70369;SDS011;57790;51.356;-2.906;2023-02-25T20:45:03;8.83;;;1.50;;
70369;SDS011;57790;51.356;-2.906;2023-02-25T20:48:06;7.88;;;1.50;;
70369;SDS011;57790;51.356;-2.906;2023-02-25T20:51:09;8.27;;;1.80;;
70369;SDS011;57790;51.356;-2.906;2023-02-25T20:54:10;9.27;;;1.60;;
70369;SDS011;57790;51.356;-2.906;2023-02-25T20:57:13;8.40;;;1.52;;
70369;SDS011;57790;51.356;-2.906;2023-02-25T21:00:15;8.52;;;1.90;;
70369;SDS011;57790;51.356;-2.906;2023-02-25T21:03:16;9.15;;;1.90;;
70369;SDS011;57790;51.356;-2.906;2023-02-25T21:06:17;8.30;;;1.90;;
70369;SDS011;57790;51.356;-2.906;2023-02-25T21:09:20;10.75;;;1.80;;
70369;SDS011;57790;51.356;-2.906;2023-02-25T21:12:20;10.87;;;2.00;;
70369;SDS011;57790;51.356;-2.906;2023-02-25T21:15:20;11.95;;;2.35;;
70369;SDS011;57790;51.356;-2.906;2023-02-25T21:18:21;10.13;;;2.20;;
70369;SDS011;57790;51.356;-2.906;2023-02-25T21:21:21;11.73;;;2.20;;
70369;SDS011;57790;51.356;-2.906;2023-02-25T21:24:22;13.17;;;2.53;;
70369;SDS011;57790;51.356;-2.906;2023-02-25T21:27:22;14.40;;;2.55;;
70369;SDS011;57790;51.356;-2.906;2023-02-25T21:30:23;10.27;;;2.17;;
70369;SDS011;57790;51.356;-2.906;2023-02-25T21:33:23;11.10;;;2.20;;
70369;SDS011;57790;51.356;-2.906;2023-02-25T21:36:24;11.60;;;2.70;;
70369;SDS011;57790;51.356;-2.906;2023-02-25T21:39:24;10.27;;;2.10;;
70369;SDS011;57790;51.356;-2.906;2023-02-25T21:42:25;8.85;;;2.10;;
70369;SDS011;57790;51.356;-2.906;2023-02-25T21:45:25;10.43;;;2.30;;
70369;SDS011;57790;51.356;-2.906;2023-02-25T21:48:26;8.97;;;2.23;;
70369;SDS011;57790;51.356;-2.906;2023-02-25T21:51:27;11.15;;;2.20;;
70369;SDS011;57790;51.356;-2.906;2023-02-25T21:54:28;12.57;;;1.85;;
70369;SDS011;57790;51.356;-2.906;2023-02-25T21:57:28;10.17;;;2.20;;
70369;SDS011;57790;51.356;-2.906;2023-02-25T22:00:29;8.97;;;2.17;;
70369;SDS011;57790;51.356;-2.906;2023-02-25T22:03:30;11.07;;;2.43;;